GMAD/AGA METAR and TAF weather

Enter ICAO airport designator
Station Type Date Time Source
GMAD METAR 2019/04/18 20:00 UTC NOAA

GMAD 182000Z 26012G31KT 090V260 CAVOK 19/09 Q1010 NOSIG


Station Type Date Time Source
GMAD Decoded METAR 2019/04/18 20:00 UTC NOAA

Agadir Al Massira, Morocco (GMAD) 30-20N 009-24W 74M
Apr 18, 2019 - 04:00 PM EDT / 2019.04.18 2000 UTC
Wind: from the W (260 degrees) at 14 MPH (12 KT) gusting to 36 MPH (31 KT) (direction variable):0
Visibility: greater than 7 mile(s):0
Temperature: 66 F (19 C)
Dew Point: 48 F (9 C)
Relative Humidity: 52%
Pressure (altimeter): 29.83 in. Hg (1010 hPa)
ob: GMAD 182000Z 26012G31KT 090V260 CAVOK 19/09 Q1010 NOSIG
cycle: 20

Station Type Date Time Source
GMAD TAF 2019/04/18 18:18 UTC NOAA

TAF TAF GMAD 181700Z 1818/1924 20006KT 8000 SCT020
BECMG 1911/1914 28016KT

Example: see airport list